Time;durP1;ratioP1;P1;durP2;ratioP2;P2;SDS_P1;SDS_P2;PMS_P1;PMS_P2;Temp;Humidity;BMP_temperature;BMP_pressure;BME280_temperature;BME280_humidity;BME280_pressure;Samples;Min_cycle;Max_cycle;Signal;HPM_P1;HPM_P2
2023/09/25 00:00:51;;;;;;;;;3.00;3.00;;;;;12.33;66.61;100560.06;5097625;28;9744;-57
2023/09/25 00:03:19;;;;;;;;;4.00;3.50;;;;;12.30;66.79;100557.66;5098166;28;8927;-57
2023/09/25 00:05:47;;;;;;;;;3.25;3.00;;;;;12.28;66.76;100556.91;5097079;28;8822;-59
2023/09/25 00:08:14;;;;;;;;;2.50;1.00;;;;;12.27;66.58;100550.72;5097921;28;9007;-58
2023/09/25 00:10:42;;;;;;;;;1.00;1.00;;;;;12.26;66.59;100549.03;5098080;28;8806;-57
2023/09/25 00:13:10;;;;;;;;;1.00;1.00;;;;;12.26;66.75;100543.69;5097030;28;8821;-59
2023/09/25 00:15:38;;;;;;;;;3.00;2.00;;;;;12.28;66.70;100554.22;5097036;28;8828;-59
2023/09/25 00:18:06;;;;;;;;;1.50;1.50;;;;;12.29;66.75;100543.44;5097273;28;8818;-59
2023/09/25 00:20:33;;;;;;;;;1.00;1.00;;;;;12.34;66.28;100543.06;5098000;28;8849;-59
2023/09/25 00:23:01;;;;;;;;;3.00;3.00;;;;;12.37;66.48;100537.47;5097029;28;8810;-57
2023/09/25 00:25:29;;;;;;;;;1.00;1.00;;;;;12.38;66.61;100537.38;5097374;28;8953;-58
2023/09/25 00:27:56;;;;;;;;;0.75;0.75;;;;;12.39;66.31;100544.41;5097096;28;8833;-58
2023/09/25 00:30:24;;;;;;;;;2.50;1.50;;;;;12.38;66.40;100533.88;5097113;28;8834;-59
2023/09/25 00:32:52;;;;;;;;;2.00;1.50;;;;;12.36;66.15;100528.63;5096267;28;8822;-59
2023/09/25 00:35:20;;;;;;;;;3.75;3.00;;;;;12.40;66.86;100531.91;5080934;28;8802;-57
2023/09/25 00:37:47;;;;;;;;;1.00;1.00;;;;;12.51;66.14;100531.91;5097380;28;8958;-59
2023/09/25 00:40:18;;;;;;;;;1.00;1.00;;;;;12.64;66.39;100532.66;5096667;28;8853;-57
2023/09/25 00:42:45;;;;;;;;;0.75;0.75;;;;;12.72;65.71;100522.22;5097289;28;9496;-59
2023/09/25 00:45:13;;;;;;;;;3.00;1.50;;;;;12.72;65.63;100524.91;5096984;28;8818;-58
2023/09/25 00:47:41;;;;;;;;;2.50;2.50;;;;;12.79;65.80;100515.44;5096515;28;8829;-59
2023/09/25 00:50:09;;;;;;;;;2.00;2.00;;;;;12.84;66.10;100519.41;5096991;28;8822;-59
2023/09/25 00:52:37;;;;;;;;;2.00;2.00;;;;;12.85;65.08;100521.13;5097215;28;8821;-59
2023/09/25 00:55:05;;;;;;;;;1.00;1.00;;;;;12.82;65.77;100521.38;5096957;28;9504;-57
2023/09/25 00:57:34;;;;;;;;;1.00;1.00;;;;;12.77;65.60;100515.53;5097029;28;8818;-59
2023/09/25 01:00:02;;;;;;;;;1.00;1.00;;;;;12.75;66.23;100516.66;5096797;28;8833;-59
2023/09/25 01:02:31;;;;;;;;;2.00;2.00;;;;;12.73;66.01;100513.22;5096286;28;8876;-57
2023/09/25 01:04:58;;;;;;;;;3.00;3.00;;;;;12.71;66.37;100512.50;5095889;28;8949;-59
2023/09/25 01:07:26;;;;;;;;;1.00;1.00;;;;;12.68;65.93;100513.59;5097054;28;8952;-58
2023/09/25 01:09:53;;;;;;;;;0.25;0.25;;;;;12.66;66.01;100507.53;5096391;28;8802;-59
2023/09/25 01:12:21;;;;;;;;;1.00;1.00;;;;;12.67;66.19;100508.38;5096303;28;8814;-57
2023/09/25 01:14:49;;;;;;;;;0.00;0.00;;;;;12.70;66.13;100506.31;5096593;28;9452;-58
2023/09/25 01:17:17;;;;;;;;;1.00;1.00;;;;;12.83;66.29;100508.88;5096036;28;8829;-59
2023/09/25 01:19:45;;;;;;;;;0.00;0.00;;;;;12.93;65.90;100507.16;5095957;28;8799;-57
2023/09/25 01:22:13;;;;;;;;;0.25;0.25;;;;;13.00;65.83;100508.41;5096479;28;8850;-56
2023/09/25 01:24:40;;;;;;;;;0.00;0.00;;;;;13.02;65.44;100501.09;5095962;28;8814;-58
2023/09/25 01:27:08;;;;;;;;;1.00;1.00;;;;;13.14;64.99;100506.28;5095902;28;8915;-57
2023/09/25 01:29:37;;;;;;;;;1.00;1.00;;;;;13.29;65.03;100504.22;5096351;28;8830;-57
2023/09/25 01:32:05;;;;;;;;;0.67;0.67;;;;;13.37;64.93;100505.28;5096192;28;8818;-57
2023/09/25 01:34:34;;;;;;;;;1.00;1.00;;;;;13.50;64.72;100507.78;5095613;28;8965;-59
2023/09/25 01:37:02;;;;;;;;;0.00;0.00;;;;;13.60;64.39;100506.06;5097061;28;9534;-58
2023/09/25 01:39:29;;;;;;;;;0.00;0.00;;;;;13.73;63.95;100510.25;5096006;28;8810;-57
2023/09/25 01:41:57;;;;;;;;;1.00;1.00;;;;;13.82;63.70;100505.97;5095549;28;8810;-57
2023/09/25 01:44:26;;;;;;;;;1.00;1.00;;;;;13.90;63.46;100498.16;5096077;28;8819;-58
2023/09/25 01:46:53;;;;;;;;;1.00;1.00;;;;;13.98;63.56;100495.66;5095437;28;8822;-59
2023/09/25 01:49:21;;;;;;;;;1.00;1.00;;;;;14.05;63.29;100494.16;5096183;28;8826;-59
2023/09/25 01:51:49;;;;;;;;;0.50;0.50;;;;;14.13;63.59;100491.69;5095786;28;8857;-58
2023/09/25 01:54:17;;;;;;;;;1.00;1.00;;;;;14.15;63.45;100503.97;5095589;28;8815;-59
2023/09/25 01:56:45;;;;;;;;;1.00;1.00;;;;;14.18;63.11;100492.19;5095434;28;8826;-57
2023/09/25 01:59:12;;;;;;;;;1.00;1.00;;;;;14.16;63.47;100488.72;5095312;28;9530;-59
2023/09/25 02:01:40;;;;;;;;;3.00;2.00;;;;;14.16;63.17;100494.09;5094844;28;8806;-59
2023/09/25 02:04:08;;;;;;;;;0.75;0.75;;;;;14.22;63.47;100491.78;5094878;28;8830;-59
2023/09/25 02:06:36;;;;;;;;;1.00;1.00;;;;;14.25;63.16;100491.50;5095284;28;8834;-58
2023/09/25 02:09:04;;;;;;;;;1.50;1.00;;;;;14.28;63.48;100501.94;5095377;28;8977;-58
2023/09/25 02:11:32;;;;;;;;;1.00;1.00;;;;;14.34;63.41;100505.97;5094656;28;8818;-58
2023/09/25 02:13:59;;;;;;;;;1.00;1.00;;;;;14.38;63.07;100502.03;5095377;28;8806;-58
2023/09/25 02:16:27;;;;;;;;;0.75;0.50;;;;;14.45;63.18;100501.38;5094917;28;8860;-58
2023/09/25 02:18:55;;;;;;;;;0.75;0.50;;;;;14.46;63.07;100503.06;5094752;28;8912;-59
2023/09/25 02:21:23;;;;;;;;;0.50;0.50;;;;;14.40;62.87;100490.19;5095099;28;8932;-58
2023/09/25 02:23:50;;;;;;;;;1.00;1.00;;;;;14.37;63.19;100493.16;5095172;28;8811;-58
2023/09/25 02:26:18;;;;;;;;;0.00;0.00;;;;;14.34;63.71;100487.19;5094775;28;9559;-58
2023/09/25 02:28:46;;;;;;;;;0.00;0.00;;;;;14.32;63.36;100489.16;5095338;28;8833;-58
2023/09/25 02:31:15;;;;;;;;;1.00;1.00;;;;;14.31;63.68;100476.72;5095251;28;8810;-59
2023/09/25 02:33:43;;;;;;;;;1.00;1.00;;;;;14.35;63.64;100472.81;5094465;28;8823;-56
2023/09/25 02:36:10;;;;;;;;;1.00;1.00;;;;;14.41;63.69;100469.63;5095299;28;8808;-59
2023/09/25 02:38:38;;;;;;;;;1.00;1.00;;;;;14.46;63.27;100476.25;5095877;28;8823;-59
2023/09/25 02:41:06;;;;;;;;;1.00;1.00;;;;;14.48;62.83;100468.94;5095227;28;8839;-57
2023/09/25 02:43:33;;;;;;;;;0.00;0.00;;;;;14.47;63.13;100469.06;5095284;28;8821;-57
2023/09/25 02:46:01;;;;;;;;;1.00;1.00;;;;;14.42;63.36;100472.13;5094427;28;8825;-59
2023/09/25 02:48:29;;;;;;;;;0.00;0.00;;;;;14.37;63.37;100482.44;5094915;28;9523;-57
2023/09/25 02:50:56;;;;;;;;;1.00;1.00;;;;;14.34;63.75;100488.03;5094695;28;8911;-58
2023/09/25 02:53:25;;;;;;;;;1.50;1.50;;;;;14.27;63.82;100483.34;5095316;28;8827;-59
2023/09/25 02:55:53;;;;;;;;;1.00;1.00;;;;;14.20;63.70;100492.91;5094546;28;8798;-59
2023/09/25 02:58:20;;;;;;;;;2.50;1.00;;;;;14.10;64.02;100497.28;5095059;28;8847;-59
2023/09/25 03:00:49;;;;;;;;;1.00;1.00;;;;;13.95;64.12;100499.44;5094830;28;8883;-59
2023/09/25 03:03:17;;;;;;;;;3.00;3.00;;;;;13.83;64.47;100497.78;5094784;28;9589;-58
2023/09/25 03:05:44;;;;;;;;;1.00;1.00;;;;;13.75;64.72;100502.13;5094408;28;8826;-59
2023/09/25 03:08:12;;;;;;;;;0.50;0.50;;;;;13.67;65.00;100509.94;5095549;28;8814;-58
2023/09/25 03:10:40;;;;;;;;;1.50;1.50;;;;;13.59;65.54;100504.38;5094590;28;9776;-58
2023/09/25 03:13:07;;;;;;;;;1.00;1.00;;;;;13.52;65.12;100511.19;5098228;28;8862;-59
2023/09/25 03:15:35;;;;;;;;;1.00;1.00;;;;;13.43;64.89;100507.44;5098295;28;8809;-59
2023/09/25 03:18:02;;;;;;;;;0.50;0.50;;;;;13.33;65.91;100514.53;5098762;28;8955;-58
2023/09/25 03:20:30;;;;;;;;;2.50;2.50;;;;;13.25;65.60;100519.66;5098771;28;8822;-58
2023/09/25 03:22:58;;;;;;;;;1.00;1.00;;;;;13.19;65.98;100508.59;5099480;28;8834;-57
2023/09/25 03:25:26;;;;;;;;;1.00;1.00;;;;;13.17;66.11;100522.13;5098374;28;8826;-57
2023/09/25 03:27:53;;;;;;;;;1.00;1.00;;;;;13.20;65.61;100518.34;5097972;28;8831;-60
2023/09/25 03:30:21;;;;;;;;;0.75;0.75;;;;;13.34;65.56;100518.03;5097868;28;8799;-59
2023/09/25 03:32:52;;;;;;;;;3.00;2.50;;;;;13.41;65.18;100524.59;5097576;28;8853;-60
2023/09/25 03:35:20;;;;;;;;;1.00;1.00;;;;;13.49;65.36;100527.50;5097511;28;8840;-59
2023/09/25 03:37:47;;;;;;;;;1.50;1.50;;;;;13.58;64.52;100527.59;5098434;28;8821;-59
2023/09/25 03:40:15;;;;;;;;;1.00;1.00;;;;;13.63;64.47;100521.84;5097797;28;8817;-60
2023/09/25 03:42:42;;;;;;;;;0.25;0.00;;;;;13.69;64.58;100540.09;5097885;28;8822;-57
2023/09/25 03:45:10;;;;;;;;;4.00;1.50;;;;;13.68;64.43;100527.69;5097831;28;8920;-60
2023/09/25 03:47:38;;;;;;;;;1.00;1.00;;;;;13.68;64.89;100530.38;5097934;28;8814;-57
2023/09/25 03:50:06;;;;;;;;;1.00;1.00;;;;;13.65;64.42;100527.91;5097569;28;8825;-60
2023/09/25 03:52:34;;;;;;;;;0.50;0.50;;;;;13.60;64.49;100535.50;5098660;28;8826;-60
2023/09/25 03:55:02;;;;;;;;;1.00;1.00;;;;;13.58;65.09;100543.66;5097781;28;9757;-60
2023/09/25 03:57:30;;;;;;;;;1.00;1.00;;;;;13.53;65.32;100539.66;5097681;28;8852;-60
2023/09/25 03:59:57;;;;;;;;;0.00;0.00;;;;;13.47;65.05;100543.69;5097334;28;8818;-60
2023/09/25 04:02:25;;;;;;;;;1.00;1.00;;;;;13.41;65.27;100546.00;5077284;28;8824;-57
2023/09/25 04:04:52;;;;;;;;;3.25;2.50;;;;;13.34;65.16;100545.66;5094701;28;8818;-60
2023/09/25 04:07:20;;;;;;;;;1.00;1.00;;;;;13.24;66.01;100554.56;5097480;28;8960;-59
2023/09/25 04:09:48;;;;;;;;;1.00;1.00;;;;;13.15;65.92;100549.94;5096917;28;8835;-60
2023/09/25 04:12:16;;;;;;;;;1.00;1.00;;;;;13.04;65.79;100557.97;5096423;28;8836;-60
2023/09/25 04:14:44;;;;;;;;;1.00;1.00;;;;;12.96;65.76;100555.06;5096334;28;8803;-58
2023/09/25 04:17:11;;;;;;;;;1.50;1.00;;;;;12.87;67.02;100561.97;5097522;28;8826;-60
2023/09/25 04:19:39;;;;;;;;;3.00;1.00;;;;;12.79;66.74;100569.75;5096878;28;8823;-60
2023/09/25 04:22:07;;;;;;;;;0.00;0.00;;;;;12.68;66.76;100575.06;5096522;28;8827;-58
2023/09/25 04:24:34;;;;;;;;;0.75;0.75;;;;;12.60;66.84;100568.63;5097680;28;8830;-60
2023/09/25 04:27:02;;;;;;;;;1.50;1.50;;;;;12.51;67.45;100569.31;5097535;28;9639;-58
2023/09/25 04:29:30;;;;;;;;;2.50;1.00;;;;;12.43;66.75;100571.75;5097589;28;8816;-58
2023/09/25 04:31:58;;;;;;;;;3.00;3.00;;;;;12.37;67.42;100572.19;5097184;28;8834;-60
2023/09/25 04:34:26;;;;;;;;;1.00;1.00;;;;;12.32;66.89;100574.41;5097419;28;8857;-58
2023/09/25 04:36:53;;;;;;;;;1.00;1.00;;;;;12.27;67.60;100574.75;5097522;28;8855;-60
2023/09/25 04:39:21;;;;;;;;;1.00;1.00;;;;;12.22;67.75;100574.25;5097736;28;8818;-58
2023/09/25 04:41:48;;;;;;;;;1.00;1.00;;;;;12.17;67.64;100575.56;5096550;28;8854;-59
2023/09/25 04:44:17;;;;;;;;;1.00;1.00;;;;;12.12;67.82;100572.38;5096575;28;8854;-57
2023/09/25 04:46:46;;;;;;;;;1.00;1.00;;;;;12.06;67.51;100568.38;5096552;28;8856;-59
2023/09/25 04:49:13;;;;;;;;;1.00;1.00;;;;;12.02;67.74;100580.22;5097046;28;10135;-59
2023/09/25 04:51:41;;;;;;;;;1.00;1.00;;;;;11.98;67.95;100581.44;5096295;28;9495;-59
2023/09/25 04:54:10;;;;;;;;;0.75;0.75;;;;;11.93;67.86;100571.22;5095697;28;8821;-60
2023/09/25 04:56:38;;;;;;;;;1.00;1.00;;;;;11.88;67.97;100566.22;5096418;28;8841;-60
2023/09/25 04:59:06;;;;;;;;;0.25;0.25;;;;;11.82;67.81;100569.34;5095431;28;8833;-60
2023/09/25 05:01:33;;;;;;;;;2.00;1.00;;;;;11.78;68.24;100567.03;5095424;28;9507;-59
2023/09/25 05:04:01;;;;;;;;;5.50;3.00;;;;;11.76;68.27;100563.63;5094909;28;8973;-59
2023/09/25 05:06:32;;;;;;;;;1.00;1.00;;;;;11.74;68.23;100569.06;5094931;28;8841;-57
2023/09/25 05:08:59;;;;;;;;;0.00;0.00;;;;;11.74;68.50;100562.91;5095439;28;8844;-57
2023/09/25 05:11:27;;;;;;;;;1.00;1.00;;;;;11.72;68.17;100560.34;5095114;28;8914;-58
2023/09/25 05:13:55;;;;;;;;;3.00;3.00;;;;;11.68;68.39;100561.53;5093970;28;8822;-57
2023/09/25 05:16:23;;;;;;;;;0.75;0.75;;;;;11.66;68.21;100568.78;5094610;28;9487;-59
2023/09/25 05:18:50;;;;;;;;;0.50;0.50;;;;;11.63;68.18;100578.84;5095281;28;8963;-57
2023/09/25 05:21:18;;;;;;;;;2.00;1.00;;;;;11.59;68.58;100575.53;5095251;28;8836;-59
2023/09/25 05:23:46;;;;;;;;;1.00;1.00;;;;;11.55;68.90;100578.53;5094843;28;8818;-56
2023/09/25 05:26:14;;;;;;;;;0.75;0.75;;;;;11.52;68.57;100578.75;5094393;28;8830;-58
2023/09/25 05:28:42;;;;;;;;;1.00;1.00;;;;;11.48;68.83;100583.47;5093722;28;8881;-57
2023/09/25 05:31:09;;;;;;;;;0.50;0.00;;;;;11.48;68.62;100582.59;5093731;28;8833;-59
2023/09/25 05:33:37;;;;;;;;;3.00;1.00;;;;;11.49;68.41;100585.16;5091567;28;8842;-59
2023/09/25 05:36:06;;;;;;;;;1.50;1.00;;;;;11.53;68.08;100577.78;5092075;28;8825;-58
2023/09/25 05:38:33;;;;;;;;;1.00;1.00;;;;;11.57;68.50;100577.44;5091455;28;8856;-58
2023/09/25 05:41:01;;;;;;;;;2.00;2.00;;;;;11.63;68.42;100587.72;5090844;28;8825;-59
2023/09/25 05:43:29;;;;;;;;;1.00;1.00;;;;;11.67;68.14;100585.66;5090949;28;8841;-57
2023/09/25 05:45:56;;;;;;;;;2.50;2.50;;;;;11.71;68.09;100590.66;5090959;28;9208;-59
2023/09/25 05:48:24;;;;;;;;;1.00;1.00;;;;;11.74;67.59;100584.25;5091777;28;8830;-59
2023/09/25 05:50:52;;;;;;;;;1.50;1.50;;;;;11.78;68.07;100597.25;5090928;28;8914;-59
2023/09/25 05:53:21;;;;;;;;;1.00;1.00;;;;;11.80;67.46;100587.31;5090116;28;8826;-57
2023/09/25 05:55:49;;;;;;;;;1.00;1.00;;;;;11.81;67.97;100594.34;5091187;28;8857;-59
2023/09/25 05:58:17;;;;;;;;;1.00;1.00;;;;;11.83;67.67;100591.56;5091054;28;8830;-58
2023/09/25 06:00:46;;;;;;;;;1.00;1.00;;;;;11.86;67.44;100586.84;5091288;28;8833;-59
2023/09/25 06:03:14;;;;;;;;;3.00;2.00;;;;;11.88;67.53;100590.25;5091291;28;8869;-59
2023/09/25 06:05:43;;;;;;;;;2.00;1.00;;;;;11.92;67.69;100602.41;5091284;28;8875;-59
2023/09/25 06:08:10;;;;;;;;;1.00;1.00;;;;;11.96;67.43;100598.53;5090590;28;8876;-59
2023/09/25 06:10:39;;;;;;;;;2.00;2.00;;;;;11.98;67.63;100602.78;5092225;28;8866;-57
2023/09/25 06:13:07;;;;;;;;;2.75;2.50;;;;;11.99;67.36;100596.50;5092172;28;8833;-58
2023/09/25 06:15:37;;;;;;;;;1.50;1.50;;;;;12.02;67.56;100593.56;5090576;28;8822;-57
2023/09/25 06:18:09;;;;;;;;;0.25;0.25;;;;;12.08;67.25;100587.78;5090408;28;8940;-59
2023/09/25 06:20:38;;;;;;;;;2.00;2.00;;;;;12.17;67.17;100596.94;5090842;28;8838;-59
2023/09/25 06:23:06;;;;;;;;;1.50;1.50;;;;;12.23;66.90;100588.47;5089810;28;8822;-59
2023/09/25 06:25:34;;;;;;;;;4.00;3.00;;;;;12.30;67.21;100587.03;5089583;28;8826;-59
2023/09/25 06:28:02;;;;;;;;;5.50;3.00;;;;;12.34;66.97;100599.16;5090407;28;8842;-59
2023/09/25 06:30:31;;;;;;;;;2.00;1.00;;;;;12.35;66.95;100595.50;5090262;28;8830;-59
2023/09/25 06:32:59;;;;;;;;;3.00;3.00;;;;;12.38;67.07;100600.66;5090940;28;9557;-59
2023/09/25 06:35:28;;;;;;;;;3.00;3.00;;;;;12.43;66.49;100603.78;5091540;28;8838;-59
2023/09/25 06:37:55;;;;;;;;;3.00;1.00;;;;;12.50;66.58;100607.69;5091931;28;8844;-59
2023/09/25 06:40:23;;;;;;;;;3.25;3.00;;;;;12.57;66.30;100606.25;5092411;28;8838;-59
2023/09/25 06:42:51;;;;;;;;;3.00;3.00;;;;;12.66;66.29;100602.88;5092447;28;9246;-59
2023/09/25 06:45:21;;;;;;;;;3.00;3.00;;;;;12.76;66.33;100604.72;5091954;28;8836;-59
2023/09/25 06:47:49;;;;;;;;;3.25;3.00;;;;;12.88;65.80;100601.09;5092686;28;9495;-59
2023/09/25 06:50:17;;;;;;;;;4.00;3.00;;;;;13.00;66.08;100596.63;5092315;28;9499;-59
2023/09/25 06:52:45;;;;;;;;;6.00;3.00;;;;;13.13;65.72;100602.72;5090789;28;8924;-59
2023/09/25 06:55:12;;;;;;;;;3.25;3.25;;;;;13.24;65.72;100603.56;5090842;28;8840;-59
2023/09/25 06:57:40;;;;;;;;;4.00;4.00;;;;;13.36;65.15;100593.69;5090197;28;8913;-59
2023/09/25 07:00:09;;;;;;;;;4.00;3.75;;;;;13.49;65.01;100592.56;5089604;28;8845;-58
2023/09/25 07:02:37;;;;;;;;;3.50;3.50;;;;;13.64;64.84;100601.16;5089624;28;9491;-59
2023/09/25 07:05:05;;;;;;;;;3.25;3.25;;;;;13.76;64.74;100593.00;5090227;28;8838;-59
2023/09/25 07:07:33;;;;;;;;;4.00;4.00;;;;;13.88;64.30;100601.84;5089536;28;8838;-57
2023/09/25 07:10:01;;;;;;;;;4.00;4.00;;;;;14.00;64.47;100606.19;5089882;28;9542;-57
2023/09/25 07:12:29;;;;;;;;;3.75;3.00;;;;;14.10;64.43;100597.25;5090959;28;9503;-59
2023/09/25 07:14:58;;;;;;;;;4.25;4.25;;;;;14.21;64.23;100591.03;5091515;28;8841;-59
2023/09/25 07:17:26;;;;;;;;;3.50;3.25;;;;;14.32;63.44;100594.50;5091324;28;8903;-59
2023/09/25 07:19:55;;;;;;;;;4.00;3.25;;;;;14.46;63.20;100596.88;5091539;28;8837;-59
2023/09/25 07:22:22;;;;;;;;;6.50;6.50;;;;;14.60;62.87;100593.88;5091349;28;8837;-58
2023/09/25 07:24:50;;;;;;;;;4.00;3.00;;;;;14.77;62.84;100600.44;5090685;28;8818;-57
2023/09/25 07:27:18;;;;;;;;;0.00;0.00;;;;;14.93;62.76;100603.47;5090288;28;8834;-58
2023/09/25 07:29:46;;;;;;;;;3.00;3.00;;;;;15.12;62.72;100600.91;5090083;28;8931;-59
2023/09/25 07:32:14;;;;;;;;;3.00;3.00;;;;;15.29;61.82;100594.91;5090984;28;8834;-57
2023/09/25 07:34:42;;;;;;;;;1.00;1.00;;;;;15.48;61.91;100592.31;5091043;28;8842;-58
2023/09/25 07:37:12;;;;;;;;;1.00;1.00;;;;;15.69;61.22;100591.22;5091267;28;8956;-60
2023/09/25 07:39:40;;;;;;;;;1.00;1.00;;;;;15.92;61.02;100586.47;5091123;28;8837;-59
2023/09/25 07:42:08;;;;;;;;;3.00;3.00;;;;;16.11;60.47;100581.09;5090948;28;8926;-59
2023/09/25 07:44:36;;;;;;;;;3.00;3.00;;;;;16.28;60.56;100584.78;5091525;28;8837;-59
2023/09/25 07:47:06;;;;;;;;;1.00;1.00;;;;;16.50;60.02;100578.28;5091799;28;8825;-60
2023/09/25 07:49:40;;;;;;;;;1.00;1.00;;;;;16.71;60.04;100579.78;5090894;28;8919;-60
2023/09/25 07:52:15;;;;;;;;;1.00;1.00;;;;;16.85;59.48;100573.94;5091524;28;8923;-59
2023/09/25 07:54:44;;;;;;;;;1.40;1.40;;;;;17.00;59.59;100577.84;5091304;28;8834;-59
2023/09/25 07:57:11;;;;;;;;;1.00;1.00;;;;;17.14;58.68;100577.38;5092793;28;8822;-58
2023/09/25 07:59:39;;;;;;;;;1.40;1.00;;;;;17.26;58.96;100584.28;5094807;28;8826;-58
2023/09/25 08:02:08;;;;;;;;;0.40;0.40;;;;;17.32;58.64;100580.97;5093527;28;9511;-60
2023/09/25 08:04:36;;;;;;;;;3.00;1.80;;;;;17.38;58.99;100583.09;5094135;28;8856;-60
2023/09/25 08:07:03;;;;;;;;;1.00;0.80;;;;;17.43;58.80;100586.19;5092790;28;8842;-58
2023/09/25 08:09:31;;;;;;;;;1.00;1.00;;;;;17.49;58.33;100588.31;5092553;28;8879;-57
2023/09/25 08:11:59;;;;;;;;;3.00;1.40;;;;;17.57;58.66;100577.63;5092950;28;9553;-59
2023/09/25 08:14:26;;;;;;;;;1.00;1.00;;;;;17.67;58.24;100581.09;5093022;28;8848;-59
2023/09/25 08:16:54;;;;;;;;;1.80;1.00;;;;;17.79;58.14;100571.81;5093772;28;8825;-57
2023/09/25 08:19:23;;;;;;;;;1.00;0.60;;;;;17.92;57.52;100572.25;5093610;28;8822;-59
2023/09/25 08:21:51;;;;;;;;;2.60;1.00;;;;;18.02;57.61;100562.28;5094754;28;9511;-60
2023/09/25 08:24:19;;;;;;;;;3.40;1.80;;;;;18.12;57.37;100568.41;5094169;28;8856;-59
2023/09/25 08:26:47;;;;;;;;;0.00;0.00;;;;;18.27;57.10;100572.25;5094826;28;8837;-59
2023/09/25 08:29:15;;;;;;;;;1.00;0.80;;;;;18.39;56.76;100571.06;5094044;28;8846;-60
2023/09/25 08:31:43;;;;;;;;;1.00;1.00;;;;;18.52;56.75;100570.66;5094132;28;8829;-57
2023/09/25 08:34:11;;;;;;;;;1.00;0.60;;;;;18.73;56.38;100576.53;5094044;28;8853;-60
2023/09/25 08:36:39;;;;;;;;;1.00;1.00;;;;;18.97;55.29;100565.91;5092725;28;8972;-58
2023/09/25 08:39:10;;;;;;;;;1.80;1.80;;;;;19.19;55.49;100560.81;5092990;28;8834;-60
2023/09/25 08:41:38;;;;;;;;;0.00;0.00;;;;;19.42;54.88;100563.78;5092899;28;8901;-60
2023/09/25 08:44:05;;;;;;;;;1.00;1.00;;;;;19.57;54.44;100554.88;5093350;28;8845;-58
2023/09/25 08:46:33;;;;;;;;;1.00;1.00;;;;;19.61;54.43;100558.09;5093604;28;8838;-59
2023/09/25 08:49:02;;;;;;;;;1.00;1.00;;;;;19.65;54.39;100560.31;5094441;28;8983;-59
2023/09/25 08:51:35;;;;;;;;;1.00;1.00;;;;;19.65;54.15;100563.00;5094029;28;8857;-60
2023/09/25 08:54:03;;;;;;;;;1.00;1.00;;;;;19.68;54.04;100560.00;5093120;28;9661;-60
2023/09/25 08:56:31;;;;;;;;;3.00;2.80;;;;;19.69;54.04;100550.88;5092056;28;8837;-60
2023/09/25 08:58:59;;;;;;;;;0.20;0.00;;;;;19.70;53.38;100541.75;5092793;28;8818;-58
2023/09/25 09:01:27;;;;;;;;;1.00;1.00;;;;;19.71;54.22;100554.25;5092831;28;8841;-60
2023/09/25 09:03:54;;;;;;;;;3.00;3.00;;;;;19.76;53.90;100554.59;5092418;28;8976;-60
2023/09/25 09:06:22;;;;;;;;;0.80;0.80;;;;;19.82;53.27;100548.53;5093588;28;9648;-58
2023/09/25 09:08:50;;;;;;;;;1.80;1.00;;;;;19.85;53.48;100548.19;5093466;28;8855;-59
2023/09/25 09:11:18;;;;;;;;;0.00;0.00;;;;;19.91;53.48;100552.94;5093866;28;8868;-60
2023/09/25 09:13:47;;;;;;;;;1.00;1.00;;;;;19.97;52.97;100552.28;5094374;28;8851;-58
2023/09/25 09:16:15;;;;;;;;;0.60;0.60;;;;;20.05;52.87;100555.03;5094153;28;8834;-58
2023/09/25 09:18:42;;;;;;;;;0.40;0.40;;;;;20.06;52.47;100562.13;5093859;28;8874;-58
2023/09/25 09:21:10;;;;;;;;;1.00;1.00;;;;;20.13;52.01;100565.84;5093044;28;8833;-59
2023/09/25 09:23:39;;;;;;;;;1.00;0.80;;;;;20.18;51.81;100555.34;5093203;28;8834;-60
2023/09/25 09:26:07;;;;;;;;;1.60;1.60;;;;;20.25;51.82;100552.84;5093676;28;8960;-59
2023/09/25 09:28:35;;;;;;;;;1.00;1.00;;;;;20.28;51.87;100550.66;5091899;28;8964;-59
2023/09/25 09:31:07;;;;;;;;;2.00;1.80;;;;;20.38;51.16;100561.28;5091772;28;8822;-60
2023/09/25 09:33:36;;;;;;;;;0.00;0.00;;;;;20.43;50.99;100557.06;5092508;28;8846;-60
2023/09/25 09:36:04;;;;;;;;;0.00;0.00;;;;;20.48;50.79;100560.09;5092434;28;9589;-58
2023/09/25 09:38:33;;;;;;;;;1.00;1.00;;;;;20.51;50.79;100553.50;5093012;28;8915;-60
2023/09/25 09:41:04;;;;;;;;;0.00;0.00;;;;;20.57;50.63;100559.09;5091954;28;8972;-58
2023/09/25 09:43:31;;;;;;;;;0.20;0.20;;;;;20.63;50.75;100552.97;5091225;28;8852;-60
2023/09/25 09:45:59;;;;;;;;;1.00;1.00;;;;;20.74;50.81;100548.06;5092545;28;9495;-58
2023/09/25 09:48:30;;;;;;;;;1.00;1.00;;;;;20.87;49.86;100542.16;5091153;28;8834;-59
2023/09/25 09:50:59;;;;;;;;;0.40;0.40;;;;;21.11;49.36;100542.91;5090838;28;8833;-58
2023/09/25 09:53:28;;;;;;;;;0.60;0.60;;;;;21.42;48.75;100540.25;5090336;28;8826;-59
2023/09/25 09:55:56;;;;;;;;;1.20;1.00;;;;;21.70;48.56;100536.09;5090627;28;8822;-60
2023/09/25 09:58:24;;;;;;;;;2.40;1.00;;;;;22.13;48.08;100535.44;5091793;28;8834;-60
2023/09/25 10:00:51;;;;;;;;;0.20;0.20;;;;;22.57;46.58;100531.88;5091767;28;8830;-60
2023/09/25 10:03:19;;;;;;;;;0.20;0.20;;;;;23.01;46.26;100527.34;5092366;28;9550;-58
2023/09/25 10:05:47;;;;;;;;;0.00;0.00;;;;;23.62;45.41;100531.50;5091829;28;8818;-60
2023/09/25 10:08:16;;;;;;;;;0.60;0.00;;;;;24.09;44.96;100527.25;5092199;28;8956;-59
2023/09/25 10:10:45;;;;;;;;;1.00;1.00;;;;;24.50;44.52;100527.44;5091666;28;8830;-59
2023/09/25 10:13:13;;;;;;;;;0.00;0.00;;;;;24.80;43.76;100516.16;5091052;28;8833;-59
2023/09/25 10:15:41;;;;;;;;;1.80;1.80;;;;;25.12;43.45;100511.97;5091434;28;8818;-60
2023/09/25 10:18:09;;;;;;;;;1.00;1.00;;;;;25.37;43.66;100524.06;5091859;28;8842;-58
2023/09/25 10:20:38;;;;;;;;;1.40;1.40;;;;;25.48;43.44;100515.31;5091348;28;8844;-58
2023/09/25 10:23:06;;;;;;;;;1.60;1.60;;;;;25.75;42.69;100513.31;5091930;28;8883;-61
2023/09/25 10:25:33;;;;;;;;;0.60;0.00;;;;;26.10;42.63;100505.88;5091941;28;8818;-59
2023/09/25 10:28:01;;;;;;;;;1.00;1.00;;;;;26.31;42.82;100508.41;5091300;28;8846;-59
2023/09/25 10:30:31;;;;;;;;;0.20;0.20;;;;;26.42;42.28;100513.25;5090839;28;8840;-61
2023/09/25 10:33:00;;;;;;;;;1.80;1.80;;;;;26.49;42.15;100505.91;5091660;28;8838;-60
2023/09/25 10:35:28;;;;;;;;;0.80;0.80;;;;;26.53;41.28;100518.97;5091850;28;8834;-62
2023/09/25 10:37:56;;;;;;;;;0.00;0.00;;;;;26.36;42.25;100517.69;5090397;28;8814;-61
2023/09/25 10:40:24;;;;;;;;;0.80;0.80;;;;;26.16;42.65;100518.69;5090696;28;9515;-61
2023/09/25 10:42:52;;;;;;;;;1.60;1.60;;;;;25.99;43.06;100522.88;5090602;28;9120;-60
2023/09/25 10:45:20;;;;;;;;;0.80;0.60;;;;;25.86;43.44;100522.78;5091134;28;8850;-60
2023/09/25 10:47:47;;;;;;;;;1.00;1.00;;;;;25.76;42.78;100517.75;5090028;28;8834;-59
2023/09/25 10:50:15;;;;;;;;;1.00;1.00;;;;;25.66;43.38;100509.09;5090631;28;8856;-59
2023/09/25 10:52:44;;;;;;;;;1.00;1.00;;;;;25.63;43.26;100513.28;5090781;28;8940;-61
2023/09/25 10:55:12;;;;;;;;;1.00;1.00;;;;;25.62;42.82;100504.25;5089951;28;8830;-59
2023/09/25 10:57:39;;;;;;;;;1.00;1.00;;;;;25.54;43.05;100501.69;5089416;28;8874;-59
2023/09/25 11:00:15;;;;;;;;;1.00;1.00;;;;;25.34;43.52;100499.94;5088979;28;9168;-61
2023/09/25 11:02:43;;;;;;;;;1.40;1.40;;;;;25.11;43.54;100504.84;5088835;28;8861;-59
2023/09/25 11:05:11;;;;;;;;;1.00;1.00;;;;;25.03;43.65;100499.53;5089444;28;9541;-60
2023/09/25 11:07:39;;;;;;;;;1.00;1.00;;;;;25.06;43.72;100499.13;5088160;28;8821;-59
2023/09/25 11:10:07;;;;;;;;;1.80;1.00;;;;;25.08;43.72;100492.44;5087300;28;8842;-59
2023/09/25 11:12:34;;;;;;;;;1.00;1.00;;;;;25.06;43.38;100496.41;5089367;28;8965;-61
2023/09/25 11:15:02;;;;;;;;;1.80;1.80;;;;;24.99;43.38;100495.53;5090190;28;9535;-59
2023/09/25 11:17:30;;;;;;;;;1.00;1.00;;;;;25.05;43.56;100497.44;5090011;28;8849;-59
2023/09/25 11:19:58;;;;;;;;;0.40;0.00;;;;;25.31;42.70;100481.25;5089612;28;8826;-59
2023/09/25 11:22:27;;;;;;;;;1.00;1.00;;;;;25.73;41.96;100481.84;5089864;28;8822;-59
2023/09/25 11:24:55;;;;;;;;;1.00;1.00;;;;;26.32;41.17;100472.69;5089308;28;8830;-59
2023/09/25 11:27:23;;;;;;;;;1.00;1.00;;;;;26.96;40.61;100464.66;5089901;28;8842;-60
2023/09/25 11:29:54;;;;;;;;;1.00;1.00;;;;;27.36;39.54;100469.81;5089908;28;8834;-60
2023/09/25 11:32:22;;;;;;;;;1.80;0.80;;;;;27.71;39.84;100459.31;5092133;28;8829;-61
2023/09/25 11:34:50;;;;;;;;;1.00;1.00;;;;;27.91;39.26;100465.53;5094750;28;8970;-60
2023/09/25 11:37:21;;;;;;;;;0.00;0.00;;;;;28.39;38.95;100467.53;5094542;28;9531;-60